createdAt,value
2023-05-14T00:00:45.131Z,40.70
2023-05-14T00:03:11.964Z,40.97
2023-05-14T00:05:38.704Z,38.97
2023-05-14T00:08:05.490Z,40.10
2023-05-14T00:10:32.213Z,39.80
2023-05-14T00:12:58.812Z,45.40
2023-05-14T00:15:25.366Z,38.33
2023-05-14T00:17:51.916Z,40.03
2023-05-14T00:20:18.895Z,41.67
2023-05-14T00:22:45.507Z,47.63
2023-05-14T00:25:12.035Z,38.83
2023-05-14T00:27:38.642Z,42.87
2023-05-14T00:30:06.858Z,41.33
2023-05-14T00:32:33.897Z,37.10
2023-05-14T00:35:00.798Z,39.20
2023-05-14T00:37:27.379Z,46.00
2023-05-14T00:39:53.881Z,44.50
2023-05-14T00:42:20.483Z,40.20
2023-05-14T00:44:46.980Z,48.50
2023-05-14T00:47:13.629Z,46.53
2023-05-14T00:49:41.061Z,49.57
2023-05-14T00:52:08.601Z,45.60
2023-05-14T00:54:36.427Z,47.60
2023-05-14T00:57:04.703Z,48.50
2023-05-14T00:59:31.851Z,44.17
2023-05-14T01:01:58.657Z,45.80
2023-05-14T01:04:25.291Z,40.57
2023-05-14T01:07:02.088Z,41.83
2023-05-14T01:09:44.203Z,43.53
2023-05-14T01:12:51.797Z,43.10
2023-05-14T01:15:27.753Z,41.50
2023-05-14T01:17:59.895Z,43.27
2023-05-14T01:20:26.916Z,50.60
2023-05-14T01:22:53.466Z,45.40
2023-05-14T01:25:20.421Z,42.07
2023-05-14T01:27:49.738Z,42.33
2023-05-14T01:30:36.176Z,40.20
2023-05-14T01:33:06.760Z,41.60
2023-05-14T01:35:33.631Z,45.63
2023-05-14T01:38:02.076Z,43.20
2023-05-14T01:40:29.712Z,42.20
2023-05-14T01:42:56.688Z,42.20
2023-05-14T01:45:24.127Z,46.53
2023-05-14T01:47:51.637Z,43.77
2023-05-14T01:50:18.346Z,48.07
2023-05-14T01:52:44.935Z,51.67
2023-05-14T01:55:11.506Z,53.13
2023-05-14T01:57:38.059Z,55.70
2023-05-14T02:00:05.553Z,56.40
2023-05-14T02:02:32.196Z,54.37
2023-05-14T02:04:58.785Z,57.03
2023-05-14T02:07:25.430Z,57.23
2023-05-14T02:09:52.141Z,58.37
2023-05-14T02:12:18.673Z,53.50
2023-05-14T02:14:45.708Z,57.50
2023-05-14T02:17:15.672Z,57.10
2023-05-14T02:19:42.195Z,64.03
2023-05-14T02:22:08.708Z,63.03
2023-05-14T02:24:35.325Z,53.13
2023-05-14T02:27:01.976Z,57.83
2023-05-14T02:29:28.505Z,56.43
2023-05-14T02:31:55.930Z,60.07
2023-05-14T02:34:22.842Z,56.83
2023-05-14T02:36:49.617Z,64.43
2023-05-14T02:39:16.274Z,57.10
2023-05-14T02:41:42.842Z,60.87
2023-05-14T02:44:09.351Z,56.13
2023-05-14T02:46:35.952Z,58.70
2023-05-14T02:49:03.029Z,55.27
2023-05-14T02:51:29.607Z,59.83
2023-05-14T02:53:56.153Z,61.50
2023-05-14T02:56:22.689Z,64.30
2023-05-14T02:58:49.181Z,63.17
2023-05-14T03:01:16.430Z,64.03
2023-05-14T03:03:43.477Z,70.17
2023-05-14T03:06:10.747Z,71.70
2023-05-14T03:08:37.303Z,73.53
2023-05-14T03:11:04.003Z,72.97
2023-05-14T03:13:30.932Z,65.40
2023-05-14T03:15:57.451Z,72.23
2023-05-14T03:18:24.115Z,65.50
2023-05-14T03:20:50.763Z,64.13
2023-05-14T03:23:17.356Z,64.63
2023-05-14T03:25:43.857Z,62.50
2023-05-14T03:28:10.438Z,62.73
2023-05-14T03:30:37.069Z,56.03
2023-05-14T03:33:04.096Z,59.30
2023-05-14T03:35:30.581Z,69.87
2023-05-14T03:37:59.080Z,70.47
2023-05-14T03:40:26.041Z,62.70
2023-05-14T03:42:52.688Z,68.17
2023-05-14T03:45:19.334Z,65.37
2023-05-14T03:47:45.854Z,63.30
2023-05-14T03:50:12.383Z,62.97
2023-05-14T03:52:38.982Z,71.37
2023-05-14T03:55:06.165Z,69.40
2023-05-14T03:57:32.791Z,66.73
2023-05-14T03:59:59.312Z,66.83
2023-05-14T04:02:25.945Z,66.10
2023-05-14T04:04:52.679Z,62.23
2023-05-14T04:07:19.347Z,64.13
2023-05-14T04:09:45.857Z,64.23
2023-05-14T04:12:12.409Z,60.77
2023-05-14T04:14:38.940Z,66.30
2023-05-14T04:17:05.457Z,64.73
2023-05-14T04:19:31.970Z,61.40
2023-05-14T04:21:58.496Z,61.13
2023-05-14T04:24:25.077Z,63.93
2023-05-14T04:26:51.612Z,67.90
2023-05-14T04:29:18.143Z,62.90
2023-05-14T04:31:44.792Z,68.90
2023-05-14T04:34:11.420Z,76.60
2023-05-14T04:36:37.958Z,69.03
2023-05-14T04:39:05.856Z,73.43
2023-05-14T04:41:32.447Z,64.97
2023-05-14T04:44:01.714Z,72.97
2023-05-14T04:46:28.645Z,75.03
2023-05-14T04:48:56.339Z,70.20
2023-05-14T04:51:23.249Z,84.07
2023-05-14T04:53:50.104Z,76.40
2023-05-14T04:56:16.631Z,84.97
2023-05-14T04:58:43.134Z,83.13
2023-05-14T05:01:09.895Z,85.93
2023-05-14T05:03:36.485Z,81.43
2023-05-14T05:06:03.349Z,78.10
2023-05-14T05:08:29.868Z,86.27
2023-05-14T05:10:56.379Z,89.77
2023-05-14T05:13:22.960Z,84.70
2023-05-14T05:15:49.504Z,91.10
2023-05-14T05:18:16.062Z,91.20
2023-05-14T05:20:42.566Z,89.40
2023-05-14T05:23:09.071Z,95.83
2023-05-14T05:25:36.151Z,86.10
2023-05-14T05:28:02.800Z,86.13
2023-05-14T05:30:30.108Z,85.93
2023-05-14T05:32:57.389Z,93.63
2023-05-14T05:35:24.033Z,91.93
2023-05-14T05:37:50.889Z,90.67
2023-05-14T05:40:17.619Z,94.50
2023-05-14T05:42:44.154Z,95.33
2023-05-14T05:45:10.989Z,99.43
2023-05-14T05:47:37.525Z,90.67
2023-05-14T05:50:04.611Z,101.20
2023-05-14T05:52:31.183Z,98.43
2023-05-14T05:54:57.732Z,96.87
2023-05-14T05:57:26.291Z,98.23
2023-05-14T05:59:53.123Z,97.23
2023-05-14T06:02:20.297Z,107.77
2023-05-14T06:04:46.883Z,101.97
2023-05-14T06:07:13.429Z,104.23
2023-05-14T06:09:39.934Z,103.17
2023-05-14T06:12:06.781Z,102.47
2023-05-14T06:14:33.446Z,102.97
2023-05-14T06:17:00.280Z,113.63
2023-05-14T06:19:26.967Z,106.93
2023-05-14T06:21:53.466Z,105.67
2023-05-14T06:24:20.279Z,113.67
2023-05-14T06:26:48.643Z,112.03
2023-05-14T06:29:15.219Z,113.93
2023-05-14T06:31:41.894Z,122.10
2023-05-14T06:34:09.043Z,122.90
2023-05-14T06:36:35.573Z,113.73
2023-05-14T06:39:02.097Z,113.83
2023-05-14T06:41:29.425Z,109.40
2023-05-14T06:43:55.937Z,112.67
2023-05-14T06:46:22.486Z,94.77
2023-05-14T06:48:49.124Z,81.00
2023-05-14T06:51:15.814Z,84.27
2023-05-14T06:53:42.354Z,64.37
2023-05-14T06:56:08.974Z,51.07
2023-05-14T06:58:35.516Z,42.53
2023-05-14T07:01:02.134Z,32.30
2023-05-14T07:03:29.032Z,26.93
2023-05-14T07:05:55.624Z,24.20
2023-05-14T07:08:22.201Z,21.40
2023-05-14T07:10:48.984Z,19.73
2023-05-14T07:13:15.534Z,20.43
2023-05-14T07:15:42.028Z,18.27
2023-05-14T07:18:08.645Z,17.03
2023-05-14T07:20:35.378Z,16.83
2023-05-14T07:23:01.951Z,19.40
2023-05-14T07:25:28.469Z,15.63
2023-05-14T07:27:55.626Z,15.83
2023-05-14T07:30:22.314Z,16.37
2023-05-14T07:32:49.073Z,20.10
2023-05-14T07:35:15.799Z,15.68
2023-05-14T07:37:42.857Z,14.85
2023-05-14T07:40:09.698Z,16.40
2023-05-14T07:42:37.356Z,18.75
2023-05-14T07:45:05.130Z,20.42
2023-05-14T07:47:31.935Z,30.23
2023-05-14T07:49:58.943Z,20.90
2023-05-14T07:52:25.659Z,20.90
2023-05-14T07:54:52.351Z,21.97
2023-05-14T07:57:19.867Z,21.02
2023-05-14T07:59:47.561Z,22.42
2023-05-14T08:02:15.767Z,19.93
2023-05-14T08:04:42.404Z,21.57
2023-05-14T08:07:09.245Z,22.93
2023-05-14T08:09:35.938Z,24.63
2023-05-14T08:12:02.604Z,22.23
2023-05-14T08:14:29.128Z,19.73
2023-05-14T08:16:55.871Z,25.27
2023-05-14T08:19:23.840Z,19.97
2023-05-14T08:21:51.306Z,22.38
2023-05-14T08:24:18.579Z,22.33
2023-05-14T08:26:45.077Z,19.50
2023-05-14T08:29:12.984Z,19.55
2023-05-14T08:31:41.236Z,20.58
2023-05-14T08:34:07.789Z,21.50
2023-05-14T08:36:34.345Z,21.00
2023-05-14T08:39:01.120Z,19.52
2023-05-14T08:41:27.648Z,19.73
2023-05-14T08:44:18.888Z,21.05
2023-05-14T08:46:45.764Z,20.75
2023-05-14T08:49:40.206Z,20.98
2023-05-14T08:52:08.573Z,22.35
2023-05-14T08:54:35.404Z,18.98
2023-05-14T08:57:04.411Z,20.23
2023-05-14T08:59:31.353Z,18.98
2023-05-14T09:02:01.457Z,20.20
2023-05-14T09:04:29.474Z,17.38
2023-05-14T09:06:57.223Z,18.15
2023-05-14T09:09:23.998Z,18.67
2023-05-14T09:11:52.667Z,18.13
2023-05-14T09:14:20.259Z,25.25
2023-05-14T09:16:48.647Z,18.13
2023-05-14T09:19:18.776Z,18.90
2023-05-14T09:21:46.779Z,16.05
2023-05-14T09:24:24.175Z,23.15
2023-05-14T09:26:56.095Z,17.40
2023-05-14T09:29:26.164Z,21.25
2023-05-14T09:31:54.995Z,16.77
2023-05-14T09:34:26.228Z,16.75
2023-05-14T09:37:04.159Z,20.63
2023-05-14T09:39:31.747Z,23.42
2023-05-14T09:41:58.718Z,16.45
2023-05-14T09:44:25.961Z,16.45
2023-05-14T09:46:53.685Z,16.40
2023-05-14T09:49:20.857Z,17.13
2023-05-14T09:51:49.106Z,18.20
2023-05-14T09:54:15.861Z,17.48
2023-05-14T09:56:43.503Z,17.35
2023-05-14T09:59:10.197Z,16.45
2023-05-14T10:01:38.289Z,16.48
2023-05-14T10:04:08.036Z,17.08
2023-05-14T10:06:37.749Z,22.08
2023-05-14T10:09:09.768Z,16.60
2023-05-14T10:11:38.529Z,16.48
2023-05-14T10:14:26.141Z,18.92
2023-05-14T10:16:54.029Z,19.17
2023-05-14T10:19:24.128Z,16.30
2023-05-14T10:21:56.816Z,20.50
2023-05-14T10:24:24.577Z,20.38
2023-05-14T10:26:51.523Z,20.92
2023-05-14T10:29:18.080Z,21.98
2023-05-14T10:31:56.040Z,18.95
2023-05-14T10:34:33.417Z,18.00
2023-05-14T10:37:02.431Z,28.40
2023-05-14T10:39:44.760Z,22.55
2023-05-14T10:42:17.136Z,17.17
2023-05-14T10:44:58.716Z,16.80
2023-05-14T10:47:32.719Z,17.83
2023-05-14T10:50:01.882Z,18.00
2023-05-14T10:52:29.299Z,16.55
2023-05-14T10:55:03.362Z,17.20
2023-05-14T10:57:31.856Z,20.60
2023-05-14T11:00:00.124Z,18.00
2023-05-14T11:02:28.224Z,16.70
2023-05-14T11:04:59.133Z,16.17
2023-05-14T11:07:30.157Z,16.30
2023-05-14T11:10:14.210Z,17.77
2023-05-14T11:12:43.171Z,16.60
2023-05-14T11:15:21.179Z,17.25
2023-05-14T11:17:49.601Z,16.95
2023-05-14T11:20:17.322Z,15.38
2023-05-14T11:22:45.292Z,17.02
2023-05-14T11:25:14.816Z,14.32
2023-05-14T11:27:44.518Z,15.20
2023-05-14T11:30:21.638Z,11.48
2023-05-14T11:32:49.738Z,12.30
2023-05-14T11:35:17.939Z,15.25
2023-05-14T11:37:51.983Z,15.93
2023-05-14T11:40:18.990Z,16.23
2023-05-14T11:42:45.842Z,15.15
2023-05-14T11:45:13.835Z,17.55
2023-05-14T11:47:43.414Z,17.45
2023-05-14T11:50:11.000Z,19.45
2023-05-14T11:52:41.374Z,17.73
2023-05-14T11:55:12.612Z,15.70
2023-05-14T11:57:39.550Z,18.90
2023-05-14T12:00:09.047Z,15.73
2023-05-14T12:02:37.276Z,15.65
2023-05-14T12:05:07.068Z,17.00
2023-05-14T12:07:33.579Z,18.38
2023-05-14T12:10:03.222Z,15.32
2023-05-14T12:12:35.554Z,15.85
2023-05-14T12:15:02.190Z,16.92
2023-05-14T12:17:28.765Z,16.00
2023-05-14T12:19:57.238Z,15.80
2023-05-14T12:22:23.808Z,15.13
2023-05-14T12:24:55.221Z,15.93
2023-05-14T12:27:24.261Z,16.42
2023-05-14T12:32:26.520Z,14.70
2023-05-14T12:34:53.033Z,16.45
2023-05-14T12:37:19.764Z,17.15
2023-05-14T12:39:46.306Z,17.63
2023-05-14T12:42:14.572Z,22.17
2023-05-14T12:44:41.083Z,18.33
2023-05-14T12:47:08.422Z,19.02
2023-05-14T12:49:35.102Z,17.88
2023-05-14T12:52:17.343Z,21.13
2023-05-14T12:54:48.264Z,16.92
2023-05-14T12:57:14.867Z,16.73
2023-05-14T12:59:41.420Z,15.45
2023-05-14T13:02:08.151Z,15.30
2023-05-14T13:04:34.789Z,17.02
2023-05-14T13:07:01.484Z,18.60
2023-05-14T13:09:28.235Z,16.70
2023-05-14T13:11:54.776Z,17.25
2023-05-14T13:14:21.329Z,16.70
2023-05-14T13:16:47.918Z,17.33
2023-05-14T13:19:14.561Z,14.73
2023-05-14T13:21:41.216Z,15.90
2023-05-14T13:24:09.907Z,15.02
2023-05-14T13:26:37.536Z,16.77
2023-05-14T13:29:04.339Z,15.27
2023-05-14T13:31:31.065Z,18.70
2023-05-14T13:33:59.245Z,17.95
2023-05-14T13:36:25.851Z,15.93
2023-05-14T13:38:52.462Z,17.55
2023-05-14T13:41:19.085Z,15.70
2023-05-14T13:43:45.600Z,15.48
2023-05-14T13:46:12.128Z,15.48
2023-05-14T13:48:38.795Z,14.30
2023-05-14T13:51:05.351Z,13.60
2023-05-14T13:53:31.905Z,15.00
2023-05-14T13:56:00.749Z,14.25
2023-05-14T13:58:27.993Z,13.90
2023-05-14T14:00:54.669Z,13.80
2023-05-14T14:03:21.360Z,12.75
2023-05-14T14:05:48.010Z,14.13
2023-05-14T14:08:23.452Z,13.70
2023-05-14T14:10:51.234Z,16.90
2023-05-14T14:13:17.774Z,11.82
2023-05-14T14:15:44.511Z,8.90
2023-05-14T14:18:11.183Z,9.02
2023-05-14T14:20:38.062Z,8.00
2023-05-14T14:23:04.560Z,12.35
2023-05-14T14:25:31.319Z,7.72
2023-05-14T14:27:57.984Z,10.30
2023-05-14T14:30:24.835Z,9.00
2023-05-14T14:32:51.619Z,9.57
2023-05-14T14:35:19.582Z,10.95
2023-05-14T14:37:50.397Z,9.57
2023-05-14T14:40:17.582Z,12.63
2023-05-14T14:42:44.493Z,8.00
2023-05-14T14:45:11.924Z,7.32
2023-05-14T14:47:38.709Z,7.95
2023-05-14T14:50:06.336Z,7.57
2023-05-14T14:52:33.077Z,7.20
2023-05-14T14:54:59.680Z,8.88
2023-05-14T14:57:26.770Z,6.97
2023-05-14T14:59:53.342Z,4.85
2023-05-14T15:02:20.132Z,7.63
2023-05-14T15:04:46.949Z,8.18
2023-05-14T15:07:15.778Z,8.93
2023-05-14T15:09:42.309Z,4.70
2023-05-14T15:12:10.048Z,7.35
2023-05-14T15:14:36.616Z,5.70
2023-05-14T15:17:03.311Z,4.68
2023-05-14T15:19:31.668Z,7.70
2023-05-14T15:21:58.483Z,6.88
2023-05-14T15:24:26.013Z,6.47
2023-05-14T15:26:53.703Z,6.90
2023-05-14T15:29:20.621Z,6.88
2023-05-14T15:31:47.407Z,7.25
2023-05-14T15:34:14.061Z,4.80
2023-05-14T15:36:40.818Z,8.88
2023-05-14T15:39:10.300Z,8.60
2023-05-14T15:41:37.114Z,5.30
2023-05-14T15:44:03.859Z,5.63
2023-05-14T15:46:30.760Z,4.78
2023-05-14T15:48:57.967Z,7.88
2023-05-14T15:51:24.598Z,4.68
2023-05-14T15:53:53.958Z,7.05
2023-05-14T15:56:21.820Z,8.00
2023-05-14T15:58:48.929Z,5.85
2023-05-14T16:01:15.667Z,7.63
2023-05-14T16:03:42.554Z,7.20
2023-05-14T16:06:09.439Z,4.97
2023-05-14T16:08:36.023Z,8.02
2023-05-14T16:11:02.638Z,4.05
2023-05-14T16:13:29.190Z,5.03
2023-05-14T16:15:55.881Z,4.78
2023-05-14T16:18:22.419Z,5.35
2023-05-14T16:20:48.965Z,4.43
2023-05-14T16:23:15.566Z,5.03
2023-05-14T16:25:42.200Z,9.95
2023-05-14T16:28:08.758Z,11.73
2023-05-14T16:30:35.436Z,8.55
2023-05-14T16:33:02.064Z,4.55
2023-05-14T16:35:28.830Z,4.05
2023-05-14T16:37:56.031Z,5.38
2023-05-14T16:40:23.469Z,6.82
2023-05-14T16:42:51.071Z,5.47
2023-05-14T16:45:17.873Z,7.63
2023-05-14T16:47:44.674Z,7.28
2023-05-14T16:50:11.547Z,4.82
2023-05-14T16:52:38.042Z,3.97
2023-05-14T16:55:05.046Z,6.15
2023-05-14T16:57:31.744Z,12.13
2023-05-14T16:59:58.285Z,7.05
2023-05-14T17:02:24.936Z,7.30
2023-05-14T17:04:51.592Z,5.65
2023-05-14T17:07:18.260Z,7.30
2023-05-14T17:09:44.795Z,8.52
2023-05-14T17:12:13.422Z,9.20
2023-05-14T17:14:39.998Z,4.97
2023-05-14T17:17:06.540Z,4.18
2023-05-14T17:19:33.077Z,7.82
2023-05-14T17:21:59.601Z,9.57
2023-05-14T17:24:26.114Z,5.28
2023-05-14T17:26:52.661Z,6.22
2023-05-14T17:29:19.358Z,4.80
2023-05-14T17:31:46.056Z,4.72
2023-05-14T17:34:12.586Z,5.07
2023-05-14T17:36:39.445Z,5.30
2023-05-14T17:39:06.091Z,4.78
2023-05-14T17:41:32.635Z,4.85
2023-05-14T17:43:59.293Z,5.70
2023-05-14T17:46:25.980Z,8.25
2023-05-14T17:48:52.494Z,7.32
2023-05-14T17:51:18.974Z,6.15
2023-05-14T17:53:46.095Z,7.97
2023-05-14T17:56:12.714Z,10.07
2023-05-14T17:58:39.271Z,6.70
2023-05-14T18:01:05.944Z,11.57
2023-05-14T18:03:32.642Z,6.33
2023-05-14T18:05:59.506Z,6.83
2023-05-14T18:08:26.057Z,9.30
2023-05-14T18:10:52.602Z,11.97
2023-05-14T18:13:19.136Z,7.33
2023-05-14T18:15:45.673Z,6.73
2023-05-14T18:18:12.498Z,6.53
2023-05-14T18:20:39.003Z,9.50
2023-05-14T18:23:05.549Z,9.40
2023-05-14T18:25:32.097Z,10.13
2023-05-14T18:27:59.807Z,6.93
2023-05-14T18:30:26.347Z,9.87
2023-05-14T18:32:53.008Z,10.07
2023-05-14T18:35:20.186Z,7.10
2023-05-14T18:37:47.435Z,9.33
2023-05-14T18:40:18.477Z,7.10
2023-05-14T18:42:45.581Z,10.77
2023-05-14T18:45:12.274Z,11.37
2023-05-14T18:47:39.833Z,10.70
2023-05-14T18:50:07.801Z,11.33
2023-05-14T18:52:34.405Z,7.50
2023-05-14T18:55:01.013Z,8.90
2023-05-14T18:57:29.227Z,10.27
2023-05-14T18:59:55.786Z,8.37
2023-05-14T19:02:22.432Z,7.13
2023-05-14T19:04:52.810Z,7.67
2023-05-14T19:07:20.786Z,7.50
2023-05-14T19:09:47.696Z,8.50
2023-05-14T19:12:15.891Z,7.90
2023-05-14T19:14:42.416Z,14.10
2023-05-14T19:17:09.358Z,9.73
2023-05-14T19:19:36.393Z,7.63
2023-05-14T19:22:02.980Z,11.53
2023-05-14T19:24:30.094Z,9.17
2023-05-14T19:26:56.626Z,14.10
2023-05-14T19:29:23.242Z,10.33
2023-05-14T19:31:49.945Z,10.87
2023-05-14T19:34:16.775Z,9.90
2023-05-14T19:36:43.398Z,11.67
2023-05-14T19:39:10.692Z,8.07
2023-05-14T19:41:37.274Z,8.00
2023-05-14T19:44:03.847Z,12.73
2023-05-14T19:46:30.488Z,8.20
2023-05-14T19:48:57.014Z,11.30
2023-05-14T19:51:23.527Z,10.67
2023-05-14T19:53:50.111Z,13.13
2023-05-14T19:56:16.767Z,11.23
2023-05-14T19:58:44.111Z,9.13
2023-05-14T20:01:11.811Z,9.80
2023-05-14T20:03:38.528Z,15.13
2023-05-14T20:06:05.462Z,9.20
2023-05-14T20:08:32.001Z,9.30
2023-05-14T20:10:58.558Z,10.23
2023-05-14T20:13:25.538Z,15.73
2023-05-14T20:15:52.300Z,15.07
2023-05-14T20:18:18.878Z,13.70
2023-05-14T20:20:45.412Z,15.37
2023-05-14T20:23:11.930Z,13.13
2023-05-14T20:25:38.629Z,13.47
2023-05-14T20:28:05.232Z,12.97
2023-05-14T20:30:32.056Z,12.57
2023-05-14T20:32:58.709Z,12.40
2023-05-14T20:35:25.932Z,11.40
2023-05-14T20:37:52.992Z,13.23
2023-05-14T20:40:19.587Z,20.23
2023-05-14T20:42:46.158Z,13.13
2023-05-14T20:45:12.788Z,12.00
2023-05-14T20:47:40.353Z,14.77
2023-05-14T20:50:07.596Z,13.67
2023-05-14T20:52:34.135Z,12.27
2023-05-14T20:55:02.045Z,14.40
2023-05-14T20:57:29.000Z,16.97
2023-05-14T20:59:55.539Z,18.20
2023-05-14T21:02:22.236Z,19.03
2023-05-14T21:04:48.985Z,15.60
2023-05-14T21:07:15.859Z,16.03
2023-05-14T21:09:43.508Z,21.37
2023-05-14T21:12:10.181Z,18.30
2023-05-14T21:14:36.751Z,17.93
2023-05-14T21:17:03.840Z,22.50
2023-05-14T21:19:30.354Z,21.87
2023-05-14T21:21:56.946Z,20.03
2023-05-14T21:24:23.479Z,26.30
2023-05-14T21:26:51.690Z,21.33
2023-05-14T21:29:20.005Z,22.43
2023-05-14T21:31:48.298Z,26.17
2023-05-14T21:34:14.861Z,29.33
2023-05-14T21:36:41.489Z,31.90
2023-05-14T21:39:08.124Z,29.33
2023-05-14T21:41:34.612Z,24.90
2023-05-14T21:44:01.208Z,29.60
2023-05-14T21:46:28.812Z,30.27
2023-05-14T21:48:56.460Z,34.77
2023-05-14T21:51:23.135Z,30.07
2023-05-14T21:53:49.864Z,29.43
2023-05-14T21:56:16.465Z,31.57
2023-05-14T21:58:44.044Z,32.30
2023-05-14T22:01:11.426Z,37.33
2023-05-14T22:03:38.465Z,32.67
2023-05-14T22:06:05.626Z,34.77
2023-05-14T22:08:32.185Z,43.90
2023-05-14T22:10:58.955Z,41.63
2023-05-14T22:13:25.544Z,42.73
2023-05-14T22:16:01.579Z,42.10
2023-05-14T22:18:38.683Z,39.73
2023-05-14T22:21:05.441Z,45.07
2023-05-14T22:23:31.969Z,39.90
2023-05-14T22:25:58.570Z,48.47
2023-05-14T22:28:25.168Z,42.83
2023-05-14T22:30:51.735Z,51.80
2023-05-14T22:33:19.187Z,44.93
2023-05-14T22:35:45.963Z,45.97
2023-05-14T22:38:13.803Z,44.23
2023-05-14T22:40:40.424Z,48.63
2023-05-14T22:43:06.957Z,53.50
2023-05-14T22:45:33.619Z,48.57
2023-05-14T22:48:00.242Z,50.97
2023-05-14T22:50:26.840Z,56.37
2023-05-14T22:52:53.383Z,57.13
2023-05-14T22:55:19.910Z,50.10
2023-05-14T22:57:46.627Z,59.87
2023-05-14T23:00:13.752Z,61.50
2023-05-14T23:02:40.738Z,55.50
2023-05-14T23:05:08.628Z,61.47
2023-05-14T23:07:35.434Z,60.53
2023-05-14T23:10:02.211Z,61.83
2023-05-14T23:12:29.152Z,68.70
2023-05-14T23:14:56.163Z,67.57
2023-05-14T23:17:22.778Z,71.10
2023-05-14T23:19:49.435Z,68.83
2023-05-14T23:22:16.093Z,67.87
2023-05-14T23:24:42.644Z,62.53
2023-05-14T23:27:11.021Z,70.67
2023-05-14T23:29:37.520Z,68.00
2023-05-14T23:32:04.251Z,74.03
2023-05-14T23:34:30.892Z,69.67
2023-05-14T23:36:57.424Z,68.83
2023-05-14T23:39:24.041Z,71.57
2023-05-14T23:41:50.806Z,75.67
2023-05-14T23:44:17.394Z,74.43
2023-05-14T23:46:44.149Z,75.07
2023-05-14T23:49:10.911Z,71.93
2023-05-14T23:51:37.644Z,79.10
2023-05-14T23:54:04.530Z,73.70
2023-05-14T23:56:31.051Z,82.53
2023-05-14T23:58:57.641Z,78.07
